Time;durP1;ratioP1;P1;durP2;ratioP2;P2;SDS_P1;SDS_P2;PMS_P1;PMS_P2;Temp;Humidity;BMP_temperature;BMP_pressure;BME280_temperature;BME280_humidity;BME280_pressure;Samples;Min_cycle;Max_cycle;Signal;HPM_P1;HPM_P2
2023/03/21 00:00:26;;;;;;;;;;;17.20;63.50;;;;;;5024467;28;43020;-74
2023/03/21 00:02:52;;;;;;;;;;;17.10;64.00;;;;;;5024206;28;43020;-75
2023/03/21 00:05:19;;;;;;;;;;;17.30;64.20;;;;;;5024346;28;42925;-75
2023/03/21 00:07:45;;;;;;;;;;;17.30;64.20;;;;;;5024107;28;43349;-75
2023/03/21 00:10:10;;;;;;;;;;;17.20;64.10;;;;;;5026639;28;43044;-75
2023/03/21 00:12:36;;;;;;;;;;;17.20;64.10;;;;;;5027521;28;43642;-75
2023/03/21 00:15:06;;;;;;;;;;;17.40;64.10;;;;;;5026974;28;42927;-75
2023/03/21 00:17:31;;;;;;;;;;;17.20;62.80;;;;;;5027602;28;43418;-75
2023/03/21 00:19:58;;;;;;;;;;;17.30;64.00;;;;;;5027132;28;42873;-75
2023/03/21 00:22:24;;;;;;;;;;;17.30;64.00;;;;;;5026341;28;42964;-75
2023/03/21 00:24:51;;;;;;;;;;;17.40;64.20;;;;;;5026975;28;42969;-75
2023/03/21 00:27:18;;;;;;;;;;;17.20;64.00;;;;;;5024054;28;43035;-76
2023/03/21 00:29:44;;;;;;;;;;;17.20;64.00;;;;;;5005959;28;42755;-76
2023/03/21 00:32:10;;;;;;;;;;;17.30;64.10;;;;;;5007844;28;42945;-76
2023/03/21 00:34:37;;;;;;;;;;;17.30;64.30;;;;;;5007398;28;43037;-75
2023/03/21 00:37:02;;;;;;;;;;;17.30;64.10;;;;;;5008957;28;43008;-76
2023/03/21 00:39:28;;;;;;;;;;;17.30;64.00;;;;;;5027152;28;42937;-76
2023/03/21 00:41:53;;;;;;;;;;;17.30;64.00;;;;;;5027109;28;43716;-76
2023/03/21 00:44:20;;;;;;;;;;;17.30;64.10;;;;;;5025309;28;42952;-76
2023/03/21 00:46:45;;;;;;;;;;;17.20;64.20;;;;;;5026293;28;42862;-75
2023/03/21 00:49:11;;;;;;;;;;;17.30;64.20;;;;;;5027065;28;42965;-75
2023/03/21 00:51:38;;;;;;;;;;;17.20;64.00;;;;;;5025079;28;63285;-75
2023/03/21 00:54:04;;;;;;;;;;;17.10;64.20;;;;;;5027388;28;42922;-76
2023/03/21 00:56:30;;;;;;;;;;;17.10;64.00;;;;;;5027264;28;42900;-75
2023/03/21 00:58:56;;;;;;;;;;;17.20;63.90;;;;;;5027039;28;42985;-75
2023/03/21 01:01:21;;;;;;;;;;;17.30;64.00;;;;;;5026164;28;42854;-75
2023/03/21 01:03:49;;;;;;;;;;;17.20;64.10;;;;;;5027370;28;42853;-76
2023/03/21 01:06:18;;;;;;;;;;;17.20;63.90;;;;;;5027057;28;43567;-76
2023/03/21 01:08:45;;;;;;;;;;;17.20;64.00;;;;;;5027166;28;42920;-76
2023/03/21 01:11:14;;;;;;;;;;;17.20;64.00;;;;;;5026777;28;42987;-76
2023/03/21 01:13:40;;;;;;;;;;;17.10;64.00;;;;;;5026255;28;42784;-76
2023/03/21 01:16:06;;;;;;;;;;;17.20;64.00;;;;;;5026291;28;42962;-75
2023/03/21 01:18:32;;;;;;;;;;;17.40;63.50;;;;;;5026626;28;42969;-75
2023/03/21 01:20:58;;;;;;;;;;;17.30;63.70;;;;;;5026363;28;43854;-75
2023/03/21 01:23:24;;;;;;;;;;;17.20;63.70;;;;;;5027016;28;42763;-76
2023/03/21 01:25:51;;;;;;;;;;;17.20;63.80;;;;;;5026416;28;43488;-75
2023/03/21 01:28:17;;;;;;;;;;;17.10;63.90;;;;;;5027113;28;43045;-75
2023/03/21 01:30:46;;;;;;;;;;;17.10;63.90;;;;;;5026150;28;43861;-76
2023/03/21 01:33:11;;;;;;;;;;;16.90;62.60;;;;;;5026804;28;42820;-76
2023/03/21 01:35:37;;;;;;;;;;;17.20;64.00;;;;;;5026589;28;43265;-76
2023/03/21 01:38:02;;;;;;;;;;;17.50;64.00;;;;;;5024964;28;42972;-76
2023/03/21 01:40:29;;;;;;;;;;;17.20;63.80;;;;;;5026367;28;42878;-76
2023/03/21 01:42:55;;;;;;;;;;;17.30;63.70;;;;;;5024721;28;43795;-76
2023/03/21 01:45:39;;;;;;;;;;;17.10;63.60;;;;;;5025520;28;43944;-75
2023/03/21 01:48:05;;;;;;;;;;;17.20;62.60;;;;;;5024823;28;42913;-77
2023/03/21 01:50:30;;;;;;;;;;;17.10;63.70;;;;;;5025799;28;42933;-76
2023/03/21 01:52:56;;;;;;;;;;;17.10;63.70;;;;;;5026102;28;42991;-76
2023/03/21 01:55:21;;;;;;;;;;;17.10;63.70;;;;;;5025853;28;43848;-76
2023/03/21 01:57:51;;;;;;;;;;;17.20;63.70;;;;;;5026030;28;42838;-75
2023/03/21 02:00:19;;;;;;;;;;;17.20;63.80;;;;;;5024545;28;42958;-75
2023/03/21 02:02:54;;;;;;;;;;;17.20;63.60;;;;;;5025548;28;42817;-75
2023/03/21 02:05:31;;;;;;;;;;;17.20;63.60;;;;;;5024471;28;43713;-76
2023/03/21 02:07:56;;;;;;;;;;;17.30;62.50;;;;;;5025475;28;42835;-75
2023/03/21 02:10:22;;;;;;;;;;;17.50;63.70;;;;;;5025570;28;42929;-75
2023/03/21 02:12:48;;;;;;;;;;;17.20;63.70;;;;;;5025601;28;42948;-76
2023/03/21 02:15:14;;;;;;;;;;;17.10;63.60;;;;;;5008087;28;45949;-76
2023/03/21 02:17:49;;;;;;;;;;;17.20;63.60;;;;;;5025556;28;43173;-76
2023/03/21 02:20:20;;;;;;;;;;;17.10;62.50;;;;;;5025726;28;43436;-76
2023/03/21 02:22:46;;;;;;;;;;;17.20;62.60;;;;;;5025623;28;42766;-76
2023/03/21 02:25:17;;;;;;;;;;;17.60;64.00;;;;;;5025777;28;42842;-75
2023/03/21 02:28:03;;;;;;;;;;;17.10;62.40;;;;;;5026323;28;43516;-76
2023/03/21 02:30:36;;;;;;;;;;;17.20;63.50;;;;;;5024488;28;43655;-75
2023/03/21 02:33:19;;;;;;;;;;;17.10;62.40;;;;;;5025817;28;42948;-76
2023/03/21 02:35:48;;;;;;;;;;;17.10;62.30;;;;;;5025561;28;43325;-76
2023/03/21 02:38:17;;;;;;;;;;;17.00;63.50;;;;;;5025553;28;42894;-76
2023/03/21 02:40:47;;;;;;;;;;;17.10;63.70;;;;;;5024605;28;43117;-76
2023/03/21 02:43:19;;;;;;;;;;;17.00;63.50;;;;;;5025155;28;42917;-76
2023/03/21 02:45:50;;;;;;;;;;;17.10;62.40;;;;;;5025208;28;42941;-76
2023/03/21 02:48:30;;;;;;;;;;;17.10;62.30;;;;;;5025226;28;42945;-76
2023/03/21 02:50:57;;;;;;;;;;;17.10;63.50;;;;;;5006478;28;43045;-77
2023/03/21 02:53:25;;;;;;;;;;;17.20;63.60;;;;;;5025092;28;42886;-75
2023/03/21 02:55:52;;;;;;;;;;;17.20;63.50;;;;;;5025459;28;42906;-76
2023/03/21 02:58:19;;;;;;;;;;;17.10;63.50;;;;;;5024943;28;42957;-76
2023/03/21 03:00:46;;;;;;;;;;;17.00;63.40;;;;;;5024353;28;43069;-75
2023/03/21 03:03:11;;;;;;;;;;;17.10;63.40;;;;;;5005631;28;42856;-76
2023/03/21 03:05:41;;;;;;;;;;;17.10;63.60;;;;;;5024975;28;44388;-76
2023/03/21 03:08:11;;;;;;;;;;;16.90;62.80;;;;;;5025369;28;42915;-76
2023/03/21 03:10:41;;;;;;;;;;;17.10;63.50;;;;;;5024294;28;43740;-75
2023/03/21 03:13:16;;;;;;;;;;;16.90;63.30;;;;;;5025091;28;43048;-76
2023/03/21 03:15:52;;;;;;;;;;;17.00;62.20;;;;;;5024944;28;42985;-76
2023/03/21 03:18:24;;;;;;;;;;;17.00;62.30;;;;;;5024811;28;43141;-76
2023/03/21 03:21:00;;;;;;;;;;;17.10;62.30;;;;;;5024872;28;42798;-75
2023/03/21 03:23:25;;;;;;;;;;;17.00;62.30;;;;;;5025004;28;42926;-76
2023/03/21 03:25:59;;;;;;;;;;;17.00;63.40;;;;;;5024462;28;43554;-76
2023/03/21 03:28:28;;;;;;;;;;;16.90;62.10;;;;;;5024704;28;42819;-75
2023/03/21 03:30:54;;;;;;;;;;;17.00;63.40;;;;;;5024071;28;43384;-76
2023/03/21 03:33:22;;;;;;;;;;;17.20;63.50;;;;;;5024419;28;42984;-76
2023/03/21 03:35:49;;;;;;;;;;;16.80;63.10;;;;;;5024112;28;43001;-76
2023/03/21 03:38:15;;;;;;;;;;;17.10;63.40;;;;;;5024234;28;43035;-76
2023/03/21 03:40:47;;;;;;;;;;;17.00;63.30;;;;;;5024652;28;44381;-76
2023/03/21 03:43:21;;;;;;;;;;;17.10;62.00;;;;;;5025250;28;42797;-76
2023/03/21 03:45:48;;;;;;;;;;;17.10;62.10;;;;;;5030960;28;42822;-76
2023/03/21 03:48:29;;;;;;;;;;;17.10;63.30;;;;;;5031197;28;42885;-75
2023/03/21 03:51:00;;;;;;;;;;;16.80;62.10;;;;;;5030410;28;42945;-76
2023/03/21 03:53:35;;;;;;;;;;;17.10;63.30;;;;;;5030952;28;42914;-76
2023/03/21 03:56:02;;;;;;;;;;;17.20;62.30;;;;;;5031276;28;43412;-76
2023/03/21 03:58:28;;;;;;;;;;;17.00;63.40;;;;;;5028252;28;42969;-75
2023/03/21 04:00:54;;;;;;;;;;;17.10;63.30;;;;;;5030658;28;42959;-75
2023/03/21 04:03:20;;;;;;;;;;;17.10;63.30;;;;;;5029889;28;42905;-75
2023/03/21 04:05:46;;;;;;;;;;;17.20;63.60;;;;;;5030436;28;43594;-75
2023/03/21 04:08:12;;;;;;;;;;;17.10;63.20;;;;;;5030915;28;42836;-76
2023/03/21 04:10:38;;;;;;;;;;;17.00;63.20;;;;;;5020691;28;43408;-75
2023/03/21 04:13:04;;;;;;;;;;;17.30;63.30;;;;;;4999080;28;42899;-75
2023/03/21 04:15:29;;;;;;;;;;;17.00;63.00;;;;;;5028172;28;42969;-76
2023/03/21 04:17:55;;;;;;;;;;;17.00;63.30;;;;;;5029947;28;42930;-76
2023/03/21 04:20:20;;;;;;;;;;;17.10;63.40;;;;;;5010644;28;44804;-76
2023/03/21 04:22:47;;;;;;;;;;;16.80;63.00;;;;;;5030264;28;43006;-75
2023/03/21 04:25:13;;;;;;;;;;;17.10;63.20;;;;;;5020403;28;43853;-76
2023/03/21 04:27:38;;;;;;;;;;;17.00;63.20;;;;;;5010231;28;43126;-75
2023/03/21 04:30:04;;;;;;;;;;;17.10;63.30;;;;;;5010669;28;44123;-75
2023/03/21 04:32:32;;;;;;;;;;;17.00;62.90;;;;;;5029610;28;43003;-75
2023/03/21 04:34:58;;;;;;;;;;;17.00;63.10;;;;;;5030507;28;43377;-75
2023/03/21 04:37:24;;;;;;;;;;;16.90;63.20;;;;;;5030094;28;43009;-75
2023/03/21 04:39:50;;;;;;;;;;;17.40;63.20;;;;;;5021775;28;43772;-76
2023/03/21 04:42:19;;;;;;;;;;;16.90;63.00;;;;;;5020874;28;42940;-76
2023/03/21 04:44:45;;;;;;;;;;;17.10;63.10;;;;;;5025144;28;43063;-76
2023/03/21 04:47:12;;;;;;;;;;;16.90;63.00;;;;;;5027943;28;42986;-75
2023/03/21 04:49:37;;;;;;;;;;;17.00;63.00;;;;;;5019280;28;42969;-76
2023/03/21 04:52:03;;;;;;;;;;;16.90;63.20;;;;;;5021994;28;42996;-75
2023/03/21 04:54:29;;;;;;;;;;;17.00;62.80;;;;;;5029470;28;43451;-75
2023/03/21 04:56:54;;;;;;;;;;;17.00;62.90;;;;;;5025753;28;43180;-76
2023/03/21 04:59:20;;;;;;;;;;;16.90;63.00;;;;;;5025113;28;43991;-76
2023/03/21 05:01:45;;;;;;;;;;;17.00;63.20;;;;;;5023812;28;42882;-76
2023/03/21 05:04:12;;;;;;;;;;;17.00;63.00;;;;;;5006832;28;43507;-76
2023/03/21 05:06:41;;;;;;;;;;;16.90;62.90;;;;;;5026213;28;43236;-76
2023/03/21 05:09:06;;;;;;;;;;;16.90;63.10;;;;;;5026067;28;42889;-76
2023/03/21 05:11:34;;;;;;;;;;;16.90;62.90;;;;;;5015229;28;43169;-75
2023/03/21 05:14:00;;;;;;;;;;;17.00;63.00;;;;;;5007703;28;42894;-76
2023/03/21 05:16:29;;;;;;;;;;;17.00;63.50;;;;;;5009336;28;42982;-76
2023/03/21 05:19:02;;;;;;;;;;;17.00;63.10;;;;;;5005915;28;43616;-75
2023/03/21 05:21:28;;;;;;;;;;;16.90;61.80;;;;;;5017865;28;43115;-76
2023/03/21 05:23:54;;;;;;;;;;;16.90;63.00;;;;;;5016600;28;43076;-76
2023/03/21 05:26:22;;;;;;;;;;;17.00;62.90;;;;;;5010540;28;42794;-76
2023/03/21 05:28:48;;;;;;;;;;;17.10;61.80;;;;;;5005606;28;44164;-77
2023/03/21 05:31:15;;;;;;;;;;;16.90;62.90;;;;;;5015350;28;43002;-76
2023/03/21 05:33:44;;;;;;;;;;;16.90;62.80;;;;;;5019195;28;43532;-74
2023/03/21 05:36:10;;;;;;;;;;;17.00;62.80;;;;;;5015385;28;42977;-76
2023/03/21 05:38:35;;;;;;;;;;;16.90;62.80;;;;;;5012356;28;43740;-74
2023/03/21 05:41:01;;;;;;;;;;;17.00;62.90;;;;;;5009182;28;43059;-76
2023/03/21 05:43:26;;;;;;;;;;;17.00;62.80;;;;;;5002819;28;44159;-74
2023/03/21 05:45:52;;;;;;;;;;;16.90;62.80;;;;;;5006005;28;43164;-75
2023/03/21 05:48:18;;;;;;;;;;;17.00;62.90;;;;;;5006329;28;42904;-75
2023/03/21 05:50:44;;;;;;;;;;;16.90;62.80;;;;;;5005735;28;43042;-76
2023/03/21 05:53:10;;;;;;;;;;;17.10;62.90;;;;;;5004485;28;43431;-77
2023/03/21 05:55:36;;;;;;;;;;;17.00;63.40;;;;;;5006663;28;43140;-77
2023/03/21 05:58:01;;;;;;;;;;;16.90;62.80;;;;;;5015765;28;43591;-76
2023/03/21 06:00:27;;;;;;;;;;;17.10;62.80;;;;;;5025242;28;43095;-76
2023/03/21 06:02:53;;;;;;;;;;;17.10;62.70;;;;;;5021312;28;43078;-76
2023/03/21 06:05:18;;;;;;;;;;;17.10;62.80;;;;;;5019353;28;42956;-78
2023/03/21 06:07:44;;;;;;;;;;;17.30;62.90;;;;;;5024362;28;43512;-79
2023/03/21 06:10:10;;;;;;;;;;;17.10;62.90;;;;;;5025118;28;42889;-78
2023/03/21 06:12:35;;;;;;;;;;;17.00;62.30;;;;;;5012218;28;43328;-78
2023/03/21 06:15:02;;;;;;;;;;;17.20;62.70;;;;;;5023153;28;43533;-77
2023/03/21 06:17:27;;;;;;;;;;;17.20;62.70;;;;;;5018524;28;42937;-77
2023/03/21 06:19:53;;;;;;;;;;;17.30;62.70;;;;;;5024258;28;43091;-78
2023/03/21 06:22:19;;;;;;;;;;;17.10;62.70;;;;;;5024932;28;42887;-79
2023/03/21 06:24:44;;;;;;;;;;;16.90;62.60;;;;;;5024704;28;43000;-78
2023/03/21 06:27:10;;;;;;;;;;;17.20;62.90;;;;;;5023646;28;43557;-78
2023/03/21 06:29:35;;;;;;;;;;;17.10;62.90;;;;;;5017291;28;42956;-78
2023/03/21 06:32:01;;;;;;;;;;;17.00;62.20;;;;;;5018862;28;43063;-79
2023/03/21 06:34:27;;;;;;;;;;;17.20;62.90;;;;;;4995335;28;42905;-79
2023/03/21 06:36:53;;;;;;;;;;;17.20;63.00;;;;;;5020622;28;43180;-78
2023/03/21 06:39:19;;;;;;;;;;;17.10;63.50;;;;;;5004299;28;43004;-78
2023/03/21 06:41:45;;;;;;;;;;;17.10;63.00;;;;;;5004543;28;43899;-77
2023/03/21 06:44:10;;;;;;;;;;;17.20;63.00;;;;;;5005549;28;43240;-77
2023/03/21 06:46:36;;;;;;;;;;;17.10;63.10;;;;;;5005133;28;42853;-76
2023/03/21 06:49:02;;;;;;;;;;;17.10;63.10;;;;;;5005519;28;43036;-76
2023/03/21 06:51:28;;;;;;;;;;;17.30;63.10;;;;;;5005531;28;42857;-76
2023/03/21 06:53:53;;;;;;;;;;;17.30;63.10;;;;;;5005683;28;42882;-76
2023/03/21 06:56:19;;;;;;;;;;;17.10;63.10;;;;;;5005203;28;43779;-76
2023/03/21 06:58:45;;;;;;;;;;;17.40;62.90;;;;;;5005381;28;42972;-77
2023/03/21 07:01:11;;;;;;;;;;;17.40;62.90;;;;;;5005669;28;42902;-78
2023/03/21 07:03:36;;;;;;;;;;;17.30;62.80;;;;;;5005713;28;43010;-78
2023/03/21 07:06:03;;;;;;;;;;;17.30;62.70;;;;;;5005401;28;42792;-77
2023/03/21 07:08:28;;;;;;;;;;;17.40;62.80;;;;;;5005234;28;42937;-76
2023/03/21 07:10:55;;;;;;;;;;;17.50;62.70;;;;;;5005586;28;43490;-77
2023/03/21 07:13:20;;;;;;;;;;;17.40;62.70;;;;;;5005385;28;43029;-78
2023/03/21 07:15:46;;;;;;;;;;;17.40;63.10;;;;;;5005337;28;43461;-77
2023/03/21 07:18:11;;;;;;;;;;;17.60;62.90;;;;;;5004666;28;42887;-78
2023/03/21 07:20:37;;;;;;;;;;;17.50;62.50;;;;;;4986624;28;43468;-78
2023/03/21 07:23:02;;;;;;;;;;;17.40;62.50;;;;;;5005136;28;42962;-77
2023/03/21 07:25:28;;;;;;;;;;;17.50;62.40;;;;;;5005357;28;44316;-77
2023/03/21 07:27:54;;;;;;;;;;;17.50;62.40;;;;;;5005235;28;42890;-77
2023/03/21 07:30:19;;;;;;;;;;;17.60;62.40;;;;;;5005101;28;42849;-77
2023/03/21 07:32:46;;;;;;;;;;;17.60;62.60;;;;;;5005281;28;43072;-77
2023/03/21 07:35:12;;;;;;;;;;;17.60;62.40;;;;;;5004616;28;43009;-74
2023/03/21 07:37:38;;;;;;;;;;;17.50;62.40;;;;;;5004611;28;42977;-76
2023/03/21 07:40:11;;;;;;;;;;;17.60;62.40;;;;;;5004873;28;42941;-76
2023/03/21 07:42:37;;;;;;;;;;;17.60;61.90;;;;;;5004829;28;42925;-76
2023/03/21 07:45:03;;;;;;;;;;;17.60;62.40;;;;;;5004776;28;43022;-76
2023/03/21 07:47:29;;;;;;;;;;;17.60;62.10;;;;;;5004652;28;43055;-76
2023/03/21 07:49:55;;;;;;;;;;;17.80;62.40;;;;;;5004582;28;43717;-75
2023/03/21 07:52:20;;;;;;;;;;;17.80;62.50;;;;;;5004867;28;42982;-75
2023/03/21 07:54:46;;;;;;;;;;;17.60;62.50;;;;;;5004498;28;42954;-76
2023/03/21 07:57:11;;;;;;;;;;;17.60;62.30;;;;;;5004939;28;42824;-76
2023/03/21 07:59:37;;;;;;;;;;;17.70;62.40;;;;;;5004604;28;43729;-76
2023/03/21 08:02:02;;;;;;;;;;;17.60;62.40;;;;;;5004485;28;43084;-76
2023/03/21 08:04:28;;;;;;;;;;;17.70;62.60;;;;;;5004687;28;42899;-76
2023/03/21 08:06:53;;;;;;;;;;;17.80;62.50;;;;;;5004450;28;42823;-76
2023/03/21 08:09:19;;;;;;;;;;;17.60;62.30;;;;;;5005009;28;42863;-77
2023/03/21 08:11:44;;;;;;;;;;;17.70;62.40;;;;;;5004651;28;42997;-77
2023/03/21 08:14:10;;;;;;;;;;;17.80;62.50;;;;;;5004430;28;43387;-77
2023/03/21 08:16:35;;;;;;;;;;;17.60;62.40;;;;;;5004062;28;43105;-76
2023/03/21 08:19:01;;;;;;;;;;;17.60;62.40;;;;;;5003610;28;42989;-77
2023/03/21 08:21:26;;;;;;;;;;;17.70;62.50;;;;;;5004854;28;42946;-76
2023/03/21 08:23:52;;;;;;;;;;;17.70;62.40;;;;;;5004478;28;42796;-76
2023/03/21 08:26:18;;;;;;;;;;;17.80;62.60;;;;;;5004755;28;42815;-76
2023/03/21 08:28:44;;;;;;;;;;;17.60;63.10;;;;;;5004223;28;42941;-76
2023/03/21 08:31:11;;;;;;;;;;;17.70;63.20;;;;;;5006624;28;42867;-76
2023/03/21 08:33:36;;;;;;;;;;;17.60;62.60;;;;;;5007764;28;43843;-76
2023/03/21 08:36:02;;;;;;;;;;;17.60;62.50;;;;;;5007731;28;42904;-77
2023/03/21 08:38:29;;;;;;;;;;;17.70;62.50;;;;;;5007895;28;43492;-76
2023/03/21 08:40:55;;;;;;;;;;;17.70;62.60;;;;;;5007630;28;42882;-77
2023/03/21 08:43:21;;;;;;;;;;;17.80;62.60;;;;;;5007245;28;43426;-77
2023/03/21 08:45:46;;;;;;;;;;;17.70;62.50;;;;;;5007393;28;42764;-76
2023/03/21 08:48:12;;;;;;;;;;;17.70;62.60;;;;;;5007464;28;43453;-75
2023/03/21 08:50:37;;;;;;;;;;;17.80;62.70;;;;;;5007779;28;42922;-75
2023/03/21 08:53:03;;;;;;;;;;;17.70;62.60;;;;;;5007339;28;42847;-76
2023/03/21 08:55:30;;;;;;;;;;;17.70;62.60;;;;;;5007848;28;43058;-76
2023/03/21 08:57:57;;;;;;;;;;;17.70;62.70;;;;;;5007302;28;42819;-77
2023/03/21 09:00:22;;;;;;;;;;;17.70;62.60;;;;;;5007558;28;42917;-77
2023/03/21 09:02:50;;;;;;;;;;;17.70;62.40;;;;;;5006550;28;43309;-75
2023/03/21 09:05:15;;;;;;;;;;;17.90;62.70;;;;;;5006817;28;42798;-76
2023/03/21 09:07:41;;;;;;;;;;;17.80;62.60;;;;;;4988828;28;43519;-76
2023/03/21 09:10:09;;;;;;;;;;;18.20;62.70;;;;;;5007455;28;43028;-76
2023/03/21 09:12:34;;;;;;;;;;;17.90;62.10;;;;;;5007118;28;42955;-75
2023/03/21 09:15:01;;;;;;;;;;;18.00;62.50;;;;;;5007543;28;42796;-76
2023/03/21 09:17:27;;;;;;;;;;;18.00;62.40;;;;;;5007359;28;42907;-75
2023/03/21 09:19:53;;;;;;;;;;;18.10;62.50;;;;;;5006977;28;42720;-76
2023/03/21 09:22:20;;;;;;;;;;;18.00;62.50;;;;;;5006430;28;43360;-75
2023/03/21 09:24:47;;;;;;;;;;;18.10;62.50;;;;;;5006562;28;42972;-75
2023/03/21 09:27:14;;;;;;;;;;;17.90;62.40;;;;;;5006469;28;43569;-75
2023/03/21 09:29:42;;;;;;;;;;;18.00;62.40;;;;;;5007067;28;43045;-75
2023/03/21 09:32:08;;;;;;;;;;;18.00;62.50;;;;;;5006446;28;43577;-75
2023/03/21 09:34:35;;;;;;;;;;;18.10;62.50;;;;;;5006927;28;42795;-76
2023/03/21 09:37:02;;;;;;;;;;;18.10;62.60;;;;;;5006616;28;43478;-75
2023/03/21 09:39:27;;;;;;;;;;;18.00;62.40;;;;;;5006729;28;43090;-75
2023/03/21 09:42:03;;;;;;;;;;;18.00;62.50;;;;;;5005727;28;42925;-76
2023/03/21 09:44:36;;;;;;;;;;;18.10;61.50;;;;;;5006864;28;43045;-75
2023/03/21 09:47:12;;;;;;;;;;;17.90;61.40;;;;;;5006426;28;43488;-75
2023/03/21 09:49:43;;;;;;;;;;;17.90;61.50;;;;;;5006794;28;42961;-76
2023/03/21 09:52:18;;;;;;;;;;;18.10;61.50;;;;;;4988057;28;43567;-75
2023/03/21 09:54:44;;;;;;;;;;;18.00;61.60;;;;;;5006171;28;42788;-75
2023/03/21 09:57:19;;;;;;;;;;;18.00;62.70;;;;;;5006486;28;43353;-75
2023/03/21 09:59:47;;;;;;;;;;;18.00;61.70;;;;;;5006787;28;42945;-76
2023/03/21 10:02:30;;;;;;;;;;;18.00;63.00;;;;;;5005937;28;43606;-76
2023/03/21 10:04:56;;;;;;;;;;;17.80;61.70;;;;;;5006459;28;42885;-76
2023/03/21 10:07:22;;;;;;;;;;;18.00;63.00;;;;;;5006401;28;43104;-75
2023/03/21 10:09:50;;;;;;;;;;;18.00;63.20;;;;;;5006064;28;43534;-76
2023/03/21 10:12:20;;;;;;;;;;;18.00;63.30;;;;;;5005793;28;42993;-76
2023/03/21 10:14:50;;;;;;;;;;;17.90;62.00;;;;;;5005961;28;42839;-75
2023/03/21 10:17:32;;;;;;;;;;;18.20;62.20;;;;;;5006253;28;42951;-76
2023/03/21 10:20:13;;;;;;;;;;;17.90;62.10;;;;;;5006277;28;42980;-76
2023/03/21 10:22:39;;;;;;;;;;;18.00;62.30;;;;;;5006411;28;43471;-75
2023/03/21 10:25:05;;;;;;;;;;;17.80;63.20;;;;;;5006142;28;42874;-76
2023/03/21 10:27:32;;;;;;;;;;;18.00;63.40;;;;;;5005836;28;44982;-75
2023/03/21 10:29:59;;;;;;;;;;;17.90;63.40;;;;;;5006076;28;43026;-75
2023/03/21 10:32:25;;;;;;;;;;;17.90;63.40;;;;;;5005912;28;43004;-75
2023/03/21 10:34:54;;;;;;;;;;;17.80;63.50;;;;;;5005942;28;42966;-75
2023/03/21 10:37:21;;;;;;;;;;;18.00;63.50;;;;;;5005744;28;43390;-75
2023/03/21 10:39:48;;;;;;;;;;;17.90;63.50;;;;;;5005387;28;42940;-74
2023/03/21 10:42:24;;;;;;;;;;;17.90;63.50;;;;;;5005826;28;42964;-75
2023/03/21 10:44:51;;;;;;;;;;;17.80;62.40;;;;;;5005579;28;42960;-76
2023/03/21 10:47:21;;;;;;;;;;;17.80;63.40;;;;;;5005010;28;42947;-76
2023/03/21 10:49:46;;;;;;;;;;;18.00;62.50;;;;;;5004817;28;43459;-77
2023/03/21 10:52:13;;;;;;;;;;;17.90;63.60;;;;;;5005195;28;42977;-75
2023/03/21 10:54:39;;;;;;;;;;;17.80;63.50;;;;;;5004438;28;43023;-76
2023/03/21 10:57:07;;;;;;;;;;;18.10;63.80;;;;;;5004645;28;43644;-76
2023/03/21 10:59:40;;;;;;;;;;;17.90;63.60;;;;;;5005734;28;42878;-75
2023/03/21 11:02:11;;;;;;;;;;;17.80;62.50;;;;;;5005908;28;43599;-75
2023/03/21 11:04:37;;;;;;;;;;;17.80;63.80;;;;;;5005660;28;42945;-75
2023/03/21 11:07:08;;;;;;;;;;;17.90;64.40;;;;;;5005256;28;43235;-76
2023/03/21 11:09:42;;;;;;;;;;;17.80;63.80;;;;;;5005449;28;42838;-75
2023/03/21 11:12:09;;;;;;;;;;;17.90;62.90;;;;;;5005364;28;43632;-75
2023/03/21 11:14:45;;;;;;;;;;;17.80;64.00;;;;;;5005575;28;42835;-75
2023/03/21 11:17:17;;;;;;;;;;;17.80;62.90;;;;;;4987063;28;45381;-76
2023/03/21 11:19:53;;;;;;;;;;;17.80;62.90;;;;;;5005334;28;43087;-76
2023/03/21 11:22:22;;;;;;;;;;;17.80;63.00;;;;;;5005339;28;42870;-76
2023/03/21 11:24:50;;;;;;;;;;;17.80;63.00;;;;;;5005284;28;42992;-76
2023/03/21 11:27:15;;;;;;;;;;;17.90;64.30;;;;;;5004791;28;42823;-75
2023/03/21 11:29:46;;;;;;;;;;;17.80;64.20;;;;;;5005165;28;42942;-76
2023/03/21 11:32:18;;;;;;;;;;;17.80;63.20;;;;;;5005205;28;43515;-76
2023/03/21 11:34:48;;;;;;;;;;;17.90;64.40;;;;;;5005387;28;43139;-76
2023/03/21 11:37:36;;;;;;;;;;;17.90;63.20;;;;;;5004772;28;42934;-77
2023/03/21 11:40:05;;;;;;;;;;;17.80;63.20;;;;;;5002842;28;43084;-76
2023/03/21 11:42:32;;;;;;;;;;;17.90;63.20;;;;;;5004265;28;43540;-76
2023/03/21 11:45:03;;;;;;;;;;;17.90;64.40;;;;;;5005159;28;43043;-76
2023/03/21 11:47:30;;;;;;;;;;;17.90;63.40;;;;;;5004683;28;43739;-75
2023/03/21 11:49:56;;;;;;;;;;;17.80;64.40;;;;;;5007175;28;43120;-76
2023/03/21 11:52:40;;;;;;;;;;;17.90;64.60;;;;;;5013674;28;42935;-75
2023/03/21 11:55:10;;;;;;;;;;;18.00;63.50;;;;;;5012538;28;43056;-75
2023/03/21 11:57:43;;;;;;;;;;;17.90;64.50;;;;;;5017654;28;43076;-74
2023/03/21 12:00:24;;;;;;;;;;;18.00;63.50;;;;;;5014615;28;43051;-75
2023/03/21 12:02:53;;;;;;;;;;;17.90;63.50;;;;;;5017226;28;43417;-75
2023/03/21 12:05:27;;;;;;;;;;;17.80;63.40;;;;;;5014458;28;42917;-77
2023/03/21 12:07:53;;;;;;;;;;;17.90;64.10;;;;;;5002079;28;45114;-74
2023/03/21 12:10:21;;;;;;;;;;;17.80;64.80;;;;;;5007130;28;43030;-76
2023/03/21 12:12:47;;;;;;;;;;;17.90;63.60;;;;;;4989555;28;43051;-76
2023/03/21 12:15:23;;;;;;;;;;;18.00;64.80;;;;;;5018990;28;42973;-76
2023/03/21 12:18:07;;;;;;;;;;;17.90;63.70;;;;;;5007019;28;43012;-76
2023/03/21 12:20:35;;;;;;;;;;;17.80;63.60;;;;;;5005364;28;42984;-77
2023/03/21 12:23:01;;;;;;;;;;;17.90;63.70;;;;;;5006509;28;44410;-77
2023/03/21 12:25:32;;;;;;;;;;;17.90;64.90;;;;;;5006818;28;42975;-77
2023/03/21 12:28:11;;;;;;;;;;;18.00;64.00;;;;;;5005551;28;42989;-76
2023/03/21 12:30:54;;;;;;;;;;;17.90;63.90;;;;;;5005719;28;43005;-76
2023/03/21 12:33:28;;;;;;;;;;;18.20;64.00;;;;;;5005877;28;43006;-76
2023/03/21 12:36:18;;;;;;;;;;;17.90;65.00;;;;;;5003597;28;43708;-76
2023/03/21 12:38:53;;;;;;;;;;;17.90;63.90;;;;;;5004656;28;43076;-77
2023/03/21 12:41:32;;;;;;;;;;;17.90;64.00;;;;;;5006764;28;42930;-77
2023/03/21 12:44:19;;;;;;;;;;;17.80;64.00;;;;;;5014617;28;42779;-75
2023/03/21 12:46:45;;;;;;;;;;;17.80;63.90;;;;;;5015602;28;42973;-77
2023/03/21 12:49:29;;;;;;;;;;;18.00;65.10;;;;;;5015389;28;43773;-77
2023/03/21 12:51:57;;;;;;;;;;;17.90;64.30;;;;;;5019448;28;43290;-75
2023/03/21 12:54:32;;;;;;;;;;;18.00;65.10;;;;;;5017838;28;43094;-75
2023/03/21 12:57:03;;;;;;;;;;;17.90;63.90;;;;;;5015006;28;43059;-79
2023/03/21 12:59:29;;;;;;;;;;;17.90;63.80;;;;;;5017680;28;43021;-75
2023/03/21 13:01:58;;;;;;;;;;;17.90;64.80;;;;;;5006186;28;42869;-75
2023/03/21 13:04:41;;;;;;;;;;;18.10;65.50;;;;;;5007476;28;43430;-75
2023/03/21 13:07:08;;;;;;;;;;;18.00;63.60;;;;;;5007256;28;42778;-75
2023/03/21 13:09:33;;;;;;;;;;;18.00;64.80;;;;;;5007458;28;43506;-75
2023/03/21 13:12:05;;;;;;;;;;;18.10;64.80;;;;;;5007007;28;42836;-75
2023/03/21 13:14:35;;;;;;;;;;;17.90;64.70;;;;;;5006742;28;44282;-75
2023/03/21 13:17:05;;;;;;;;;;;17.90;64.70;;;;;;5006116;28;42882;-74
2023/03/21 13:19:37;;;;;;;;;;;17.90;64.70;;;;;;5007239;28;42910;-75
2023/03/21 13:22:25;;;;;;;;;;;18.00;63.60;;;;;;5007082;28;42816;-75
2023/03/21 13:24:56;;;;;;;;;;;17.90;63.60;;;;;;5007377;28;42887;-75
2023/03/21 13:27:31;;;;;;;;;;;18.00;64.80;;;;;;5007065;28;42850;-75
2023/03/21 13:30:07;;;;;;;;;;;18.00;63.70;;;;;;5007071;28;43399;-75
2023/03/21 13:32:32;;;;;;;;;;;17.90;63.60;;;;;;5006415;28;42984;-75
2023/03/21 13:34:59;;;;;;;;;;;17.80;64.60;;;;;;5006924;28;43433;-75
2023/03/21 13:37:28;;;;;;;;;;;17.90;64.70;;;;;;5007356;28;42869;-74
2023/03/21 13:39:58;;;;;;;;;;;17.90;64.70;;;;;;5006867;28;43643;-75
2023/03/21 13:42:28;;;;;;;;;;;17.80;64.50;;;;;;5006419;28;42968;-74
2023/03/21 13:44:56;;;;;;;;;;;17.90;64.70;;;;;;5006442;28;43743;-75
2023/03/21 13:47:27;;;;;;;;;;;18.00;64.60;;;;;;5006838;28;42929;-74
2023/03/21 13:50:31;;;;;;;;;;;17.90;65.10;;;;;;5006397;28;43591;-75
2023/03/21 13:53:03;;;;;;;;;;;18.00;63.50;;;;;;4984404;28;42952;-74
2023/03/21 13:55:40;;;;;;;;;;;17.90;63.30;;;;;;4984601;28;43606;-75
2023/03/21 13:58:21;;;;;;;;;;;18.00;63.40;;;;;;4984450;28;42865;-74
2023/03/21 14:01:03;;;;;;;;;;;18.00;63.30;;;;;;4984459;28;42875;-74
2023/03/21 14:03:31;;;;;;;;;;;17.90;64.50;;;;;;4984003;28;42942;-75
2023/03/21 14:05:57;;;;;;;;;;;18.20;64.70;;;;;;4984097;28;43518;-76
2023/03/21 14:08:25;;;;;;;;;;;18.20;64.50;;;;;;4984171;28;42978;-75
2023/03/21 14:10:52;;;;;;;;;;;17.80;64.30;;;;;;4984052;28;43191;-75
2023/03/21 14:13:21;;;;;;;;;;;18.00;64.50;;;;;;4984276;28;42957;-74
2023/03/21 14:15:48;;;;;;;;;;;18.00;64.60;;;;;;4983863;28;43606;-74
2023/03/21 14:18:20;;;;;;;;;;;17.90;64.40;;;;;;4983409;28;43035;-75
2023/03/21 14:20:51;;;;;;;;;;;17.90;63.30;;;;;;4983295;28;43054;-75
2023/03/21 14:23:17;;;;;;;;;;;17.80;64.70;;;;;;4990779;28;43038;-75